createdAt,value
2018-04-12T00:00:28.788Z,90.10
2018-04-12T00:02:56.243Z,90.10
2018-04-12T00:05:23.701Z,90.00
2018-04-12T00:07:51.169Z,90.00
2018-04-12T00:10:18.615Z,90.00
2018-04-12T00:12:46.086Z,90.00
2018-04-12T00:15:13.532Z,90.10
2018-04-12T00:17:40.963Z,90.10
2018-04-12T00:20:08.434Z,90.20
2018-04-12T00:22:35.857Z,90.10
2018-04-12T00:25:03.334Z,90.00
2018-04-12T00:27:30.792Z,90.10
2018-04-12T00:29:58.257Z,90.10
2018-04-12T00:32:25.872Z,90.10
2018-04-12T00:34:53.309Z,90.20
2018-04-12T00:54:36.975Z,90.60
2018-04-12T00:57:04.441Z,90.70
2018-04-12T00:59:31.888Z,90.80
2018-04-12T01:01:59.343Z,91.10
2018-04-12T01:04:26.832Z,91.30
2018-04-12T01:06:54.298Z,91.40
2018-04-12T01:09:21.725Z,91.60
2018-04-12T01:11:49.189Z,91.60
2018-04-12T01:14:16.632Z,91.70
2018-04-12T01:16:44.096Z,91.80
2018-04-12T01:36:29.620Z,92.10
2018-04-12T01:38:57.064Z,91.80
2018-04-12T01:41:24.512Z,91.90
2018-04-12T01:43:51.960Z,92.10
2018-04-12T01:46:19.414Z,91.50
2018-04-12T01:48:46.868Z,92.00
2018-04-12T01:51:14.337Z,92.30
2018-04-12T01:53:41.776Z,92.50
2018-04-12T01:56:09.243Z,92.50
2018-04-12T02:01:29.909Z,92.60
2018-04-12T02:03:57.379Z,92.50
2018-04-12T02:06:24.850Z,92.40
2018-04-12T02:08:52.304Z,92.70
2018-04-12T02:11:19.773Z,92.80
2018-04-12T02:13:47.221Z,92.90
2018-04-12T02:16:14.696Z,92.20
2018-04-12T02:18:42.143Z,92.40
2018-04-12T02:21:09.627Z,92.20
2018-04-12T02:23:37.092Z,92.40
2018-04-12T02:26:04.560Z,92.40
2018-04-12T02:28:32.011Z,92.50
2018-04-12T02:30:59.488Z,92.20
2018-04-12T02:33:26.927Z,92.80
2018-04-12T02:35:54.396Z,93.10
2018-04-12T02:38:21.861Z,93.40
2018-04-12T02:40:49.327Z,93.50
2018-04-12T02:43:16.784Z,93.40
2018-04-12T02:45:44.312Z,93.20
2018-04-12T02:48:11.769Z,92.90
2018-04-12T02:50:40.049Z,92.50
2018-04-12T02:53:07.422Z,92.40
2018-04-12T02:55:34.867Z,92.60
2018-04-12T02:58:03.084Z,92.30
2018-04-12T03:00:30.550Z,92.30
2018-04-12T03:02:58.012Z,92.60
2018-04-12T03:05:25.456Z,92.90
2018-04-12T03:07:52.941Z,93.10
2018-04-12T03:10:20.390Z,92.80
2018-04-12T03:12:47.854Z,92.60
2018-04-12T03:15:15.298Z,93.00
2018-04-12T03:17:42.773Z,93.40
2018-04-12T03:20:10.227Z,93.50
2018-04-12T03:22:37.706Z,93.10
2018-04-12T03:25:05.146Z,92.80
2018-04-12T03:27:32.604Z,92.80
2018-04-12T03:30:00.059Z,93.00
2018-04-12T03:32:28.266Z,93.30
2018-04-12T03:34:55.720Z,93.30
2018-04-12T03:37:23.183Z,93.30
2018-04-12T03:39:50.645Z,93.40
2018-04-12T03:42:18.211Z,93.10
2018-04-12T03:44:45.652Z,93.00
2018-04-12T03:47:13.977Z,92.80
2018-04-12T03:49:41.457Z,92.70
2018-04-12T03:52:08.901Z,92.60
2018-04-12T03:54:36.373Z,92.60
2018-04-12T03:57:04.675Z,92.90
2018-04-12T03:59:32.139Z,92.70
2018-04-12T04:01:59.601Z,92.30
2018-04-12T04:04:27.056Z,92.20
2018-04-12T04:06:54.534Z,92.30
2018-04-12T04:09:21.982Z,92.70
2018-04-12T04:11:49.448Z,93.40
2018-04-12T04:17:30.368Z,93.50
2018-04-12T04:20:09.804Z,93.60
2018-04-12T04:22:37.266Z,94.20
2018-04-12T04:25:04.747Z,94.20
2018-04-12T04:27:32.233Z,94.50
2018-04-12T04:29:59.727Z,94.50
2018-04-12T04:32:27.209Z,94.70
2018-04-12T04:34:54.682Z,94.70
2018-04-12T04:37:22.160Z,94.30
2018-04-12T04:39:49.655Z,94.40
2018-04-12T04:42:17.097Z,94.90
2018-04-12T04:44:44.559Z,95.00
2018-04-12T04:47:12.034Z,95.10
2018-04-12T04:49:39.516Z,95.00
2018-04-12T04:52:06.984Z,94.90
2018-04-12T04:54:34.456Z,94.90
2018-04-12T04:57:02.692Z,94.60
2018-04-12T04:59:30.151Z,94.60
2018-04-12T05:01:57.607Z,94.90
2018-04-12T05:04:25.069Z,95.10
2018-04-12T05:06:52.535Z,95.20
2018-04-12T05:09:20.005Z,95.10
2018-04-12T05:11:47.441Z,95.30
2018-04-12T05:14:14.908Z,94.90
2018-04-12T05:16:42.369Z,95.40
2018-04-12T05:19:09.826Z,95.50
2018-04-12T05:21:37.273Z,95.00
2018-04-12T05:24:04.758Z,94.70
2018-04-12T05:26:32.211Z,94.40
2018-04-12T05:28:59.663Z,94.50
2018-04-12T05:31:27.135Z,94.70
2018-04-12T05:33:54.598Z,94.90
2018-04-12T05:36:22.812Z,94.80
2018-04-12T05:38:50.265Z,94.60
2018-04-12T05:41:17.715Z,94.30
2018-04-12T05:43:45.163Z,94.40
2018-04-12T05:46:12.638Z,94.40
2018-04-12T05:48:40.079Z,94.30
2018-04-12T05:51:07.527Z,94.20
2018-04-12T05:53:35.739Z,94.40
2018-04-12T05:56:03.192Z,94.30
2018-04-12T05:58:30.634Z,93.90
2018-04-12T06:00:58.877Z,94.80
2018-04-12T06:03:26.361Z,94.80
2018-04-12T06:05:53.813Z,94.50
2018-04-12T06:08:21.296Z,94.30
2018-04-12T06:10:49.683Z,94.20
2018-04-12T06:13:17.912Z,94.20
2018-04-12T06:15:48.988Z,94.10
2018-04-12T06:18:16.443Z,94.40
2018-04-12T06:20:43.897Z,94.00
2018-04-12T06:23:11.358Z,93.90
2018-04-12T06:25:38.887Z,94.20
2018-04-12T06:28:06.350Z,94.20
2018-04-12T06:30:34.571Z,93.90
2018-04-12T06:33:02.027Z,93.90
2018-04-12T06:35:29.469Z,94.00
2018-04-12T06:37:57.475Z,94.10
2018-04-12T06:40:24.923Z,94.00
2018-04-12T06:42:52.372Z,93.80
2018-04-12T06:45:20.736Z,94.00
2018-04-12T06:47:48.203Z,93.90
2018-04-12T06:50:15.666Z,93.90
2018-04-12T06:52:43.116Z,94.10
2018-04-12T06:55:10.574Z,94.20
2018-04-12T06:57:38.030Z,94.50
2018-04-12T07:00:05.476Z,94.40
2018-04-12T07:02:33.711Z,94.00
2018-04-12T07:05:01.182Z,94.00
2018-04-12T07:07:28.644Z,94.10
2018-04-12T07:09:56.081Z,94.20
2018-04-12T07:12:23.529Z,94.20
2018-04-12T07:14:50.979Z,94.10
2018-04-12T07:17:18.431Z,94.10
2018-04-12T07:19:46.652Z,94.10
2018-04-12T07:22:14.862Z,94.00
2018-04-12T07:24:42.314Z,94.00
2018-04-12T07:27:09.759Z,94.10
2018-04-12T07:29:40.414Z,94.10
2018-04-12T07:32:08.105Z,94.00
2018-04-12T07:34:36.323Z,94.00
2018-04-12T07:37:03.776Z,94.00
2018-04-12T07:39:31.224Z,93.90
2018-04-12T07:41:59.428Z,93.90
2018-04-12T07:44:26.878Z,93.90
2018-04-12T07:46:54.361Z,93.80
2018-04-12T07:49:21.833Z,93.90
2018-04-12T07:51:49.256Z,93.50
2018-04-12T07:54:16.715Z,93.50
2018-04-12T07:56:44.216Z,93.60
2018-04-12T07:59:12.400Z,93.70
2018-04-12T08:01:39.858Z,93.60
2018-04-12T08:04:07.341Z,93.60
2018-04-12T08:06:34.788Z,93.40
2018-04-12T08:09:02.236Z,93.30
2018-04-12T08:11:29.688Z,93.30
2018-04-12T08:13:57.140Z,93.10
2018-04-12T08:16:24.610Z,93.00
2018-04-12T08:18:52.330Z,92.70
2018-04-12T08:21:20.727Z,92.70
2018-04-12T08:23:48.159Z,92.50
2018-04-12T08:26:15.635Z,92.50
2018-04-12T08:28:43.092Z,92.40
2018-04-12T08:31:10.547Z,92.20
2018-04-12T08:33:38.006Z,92.10
2018-04-12T08:36:05.448Z,92.10
2018-04-12T08:38:32.915Z,92.10
2018-04-12T08:41:00.382Z,92.20
2018-04-12T08:43:27.877Z,92.00
2018-04-12T08:45:55.288Z,91.90
2018-04-12T08:48:22.741Z,91.90
2018-04-12T08:50:50.255Z,91.40
2018-04-12T08:53:17.724Z,91.50
2018-04-12T08:55:45.185Z,91.00
2018-04-12T08:58:13.554Z,90.90
2018-04-12T09:00:43.264Z,91.20
2018-04-12T09:03:10.967Z,91.20
2018-04-12T09:05:39.919Z,90.60
2018-04-12T09:08:07.443Z,90.60
2018-04-12T09:10:35.036Z,90.60
2018-04-12T09:13:02.494Z,90.90
2018-04-12T09:15:30.217Z,90.80
2018-04-12T09:17:57.879Z,90.70
2018-04-12T09:20:25.304Z,90.80
2018-04-12T09:22:52.806Z,90.90
2018-04-12T09:25:20.296Z,90.60
2018-04-12T09:27:48.575Z,90.40
2018-04-12T09:30:16.901Z,90.50
2018-04-12T09:32:44.448Z,90.40
2018-04-12T09:35:11.922Z,90.20
2018-04-12T09:37:39.452Z,90.20
2018-04-12T09:40:06.970Z,90.10
2018-04-12T09:42:35.552Z,90.30
2018-04-12T09:45:03.887Z,90.30
2018-04-12T09:47:31.438Z,90.30
2018-04-12T09:49:59.649Z,90.30
2018-04-12T09:52:27.169Z,90.30
2018-04-12T09:54:54.628Z,90.30
2018-04-12T09:57:22.143Z,90.20
2018-04-12T09:59:49.629Z,90.00
2018-04-12T10:02:17.106Z,90.00
2018-04-12T10:04:50.956Z,89.70
2018-04-12T10:07:19.239Z,90.00
2018-04-12T10:09:46.755Z,90.30
2018-04-12T10:12:14.247Z,90.00
2018-04-12T10:14:41.684Z,89.40
2018-04-12T10:17:09.873Z,89.30
2018-04-12T10:19:37.312Z,89.30
2018-04-12T10:22:05.685Z,89.10
2018-04-12T10:24:33.186Z,88.90
2018-04-12T10:27:00.659Z,89.10
2018-04-12T10:29:28.893Z,88.70
2018-04-12T10:31:56.354Z,88.70
2018-04-12T10:34:23.793Z,88.70
2018-04-12T10:36:51.391Z,88.70
2018-04-12T10:39:18.964Z,88.50
2018-04-12T10:41:47.681Z,87.80
2018-04-12T10:44:15.824Z,87.80
2018-04-12T10:46:44.316Z,88.40
2018-04-12T10:49:11.901Z,88.40
2018-04-12T10:51:39.363Z,88.60
2018-04-12T10:54:07.652Z,89.00
2018-04-12T10:56:35.217Z,89.00
2018-04-12T10:59:03.413Z,88.10
2018-04-12T11:01:30.935Z,88.00
2018-04-12T11:03:58.389Z,85.30
2018-04-12T11:06:25.944Z,85.10
2018-04-12T11:08:53.403Z,81.30
2018-04-12T11:11:20.894Z,79.80
2018-04-12T11:13:48.448Z,81.40
2018-04-12T11:16:15.896Z,78.70
2018-04-12T11:18:43.367Z,78.80
2018-04-12T11:21:10.806Z,77.10
2018-04-12T11:23:38.301Z,75.80
2018-04-12T11:26:05.728Z,76.80
2018-04-12T11:28:33.155Z,75.30
2018-04-12T11:31:01.341Z,73.40
2018-04-12T11:33:29.549Z,75.50
2018-04-12T11:35:57.004Z,75.50
2018-04-12T11:38:24.464Z,72.40
2018-04-12T11:40:52.682Z,73.30
2018-04-12T11:43:20.141Z,72.60
2018-04-12T11:45:47.576Z,71.40
2018-04-12T11:48:15.012Z,70.30
2018-04-12T11:50:43.236Z,70.10
2018-04-12T11:53:10.692Z,70.00
2018-04-12T11:55:38.165Z,70.10
2018-04-12T11:58:05.600Z,70.60
2018-04-12T12:00:33.071Z,69.20
2018-04-12T12:03:00.536Z,68.70
2018-04-12T12:05:27.997Z,69.50
2018-04-12T12:07:56.225Z,68.50
2018-04-12T12:10:23.684Z,68.50
2018-04-12T12:12:51.145Z,68.40
2018-04-12T12:15:20.637Z,69.50
2018-04-12T12:17:48.122Z,69.80
2018-04-12T12:20:15.598Z,68.10
2018-04-12T12:22:43.816Z,67.10
2018-04-12T12:25:11.274Z,67.10
2018-04-12T12:27:38.733Z,63.60
2018-04-12T12:30:06.217Z,64.60
2018-04-12T12:32:33.680Z,64.70
2018-04-12T12:35:01.135Z,62.30
2018-04-12T12:37:28.585Z,63.50
2018-04-12T12:39:56.025Z,63.70
2018-04-12T12:42:23.925Z,61.70
2018-04-12T12:44:51.421Z,60.40
2018-04-12T12:47:18.889Z,61.10
2018-04-12T12:49:46.356Z,62.80
2018-04-12T12:52:13.796Z,63.20
2018-04-12T12:54:41.252Z,62.60
2018-04-12T12:57:09.453Z,60.90
2018-04-12T12:59:36.927Z,60.70
2018-04-12T13:02:04.378Z,60.10
2018-04-12T13:04:31.817Z,60.10
2018-04-12T13:06:59.263Z,60.20
2018-04-12T13:09:26.722Z,60.20
2018-04-12T13:11:54.188Z,61.10
2018-04-12T13:14:21.660Z,58.10
2018-04-12T13:16:49.112Z,58.20
2018-04-12T13:19:16.610Z,55.80
2018-04-12T13:21:44.033Z,57.30
2018-04-12T13:24:11.476Z,57.60
2018-04-12T13:26:38.938Z,58.20
2018-04-12T13:29:06.383Z,57.90
2018-04-12T13:31:34.619Z,57.80
2018-04-12T13:34:02.066Z,57.70
2018-04-12T13:36:29.519Z,54.50
2018-04-12T13:38:56.963Z,54.50
2018-04-12T13:41:24.445Z,53.80
2018-04-12T13:43:51.884Z,56.70
2018-04-12T13:46:20.121Z,54.10
2018-04-12T13:48:47.575Z,54.00
2018-04-12T13:51:15.029Z,55.00
2018-04-12T13:53:42.460Z,56.10
2018-04-12T13:56:09.935Z,55.70
2018-04-12T13:58:37.387Z,55.30
2018-04-12T14:01:04.848Z,54.00
2018-04-12T14:03:32.287Z,54.20
2018-04-12T14:06:00.512Z,54.00
2018-04-12T14:08:27.956Z,54.10
2018-04-12T14:10:56.184Z,51.10
2018-04-12T14:13:23.628Z,50.50
2018-04-12T14:15:51.067Z,52.40
2018-04-12T14:18:18.532Z,50.00
2018-04-12T14:20:45.992Z,48.90
2018-04-12T14:23:13.501Z,49.10
2018-04-12T14:25:40.950Z,45.70
2018-04-12T14:28:08.400Z,43.70
2018-04-12T14:30:35.856Z,50.40
2018-04-12T14:33:03.304Z,51.10
2018-04-12T14:35:30.759Z,48.70
2018-04-12T14:37:58.228Z,45.70
2018-04-12T14:40:25.672Z,43.60
2018-04-12T14:42:53.145Z,45.50
2018-04-12T14:45:20.590Z,46.90
2018-04-12T14:47:48.801Z,48.30
2018-04-12T14:50:16.246Z,48.30
2018-04-12T14:52:43.692Z,47.70
2018-04-12T14:55:11.914Z,47.80
2018-04-12T14:57:39.411Z,47.90
2018-04-12T15:00:06.820Z,48.40
2018-04-12T15:02:34.268Z,47.90
2018-04-12T15:05:01.733Z,45.10
2018-04-12T15:07:29.188Z,46.00
2018-04-12T15:09:56.636Z,41.40
2018-04-12T15:12:24.855Z,38.70
2018-04-12T15:14:52.308Z,38.70
2018-04-12T15:17:19.758Z,38.90
2018-04-12T15:19:47.199Z,39.20
2018-04-12T15:22:15.428Z,39.20
2018-04-12T15:24:42.876Z,39.00
2018-04-12T15:27:10.330Z,39.60
2018-04-12T15:29:37.784Z,39.00
2018-04-12T15:32:05.379Z,37.60
2018-04-12T15:34:32.739Z,38.20
2018-04-12T15:37:00.205Z,39.30
2018-04-12T15:39:27.648Z,38.40
2018-04-12T15:41:55.105Z,36.80
2018-04-12T15:44:22.552Z,37.20
2018-04-12T15:46:50.767Z,36.90
2018-04-12T15:49:18.216Z,36.80
2018-04-12T15:51:45.662Z,37.50
2018-04-12T15:54:13.125Z,34.80
2018-04-12T15:56:40.586Z,33.90
2018-04-12T15:59:08.797Z,37.00
2018-04-12T16:01:36.268Z,37.00
2018-04-12T16:04:03.736Z,36.50
2018-04-12T16:06:31.181Z,37.50
2018-04-12T16:08:58.632Z,44.30
2018-04-12T16:11:26.078Z,52.40
2018-04-12T16:13:53.542Z,54.10
2018-04-12T16:16:20.998Z,55.80
2018-04-12T16:18:49.215Z,56.60
2018-04-12T16:21:16.653Z,56.50
2018-04-12T16:23:44.106Z,57.30
2018-04-12T16:26:11.558Z,58.40
2018-04-12T16:28:39.790Z,58.30
2018-04-12T16:31:07.227Z,58.90
2018-04-12T16:33:34.686Z,59.00
2018-04-12T16:36:02.958Z,59.70
2018-04-12T16:38:30.483Z,59.70
2018-04-12T16:40:58.775Z,59.80
2018-04-12T16:43:26.215Z,59.70
2018-04-12T16:45:53.667Z,60.20
2018-04-12T16:48:21.178Z,60.00
2018-04-12T16:50:49.562Z,60.00
2018-04-12T16:53:17.023Z,59.80
2018-04-12T16:55:45.472Z,63.30
2018-04-12T16:58:12.955Z,62.50
2018-04-12T17:00:40.428Z,65.00
2018-04-12T17:03:08.900Z,66.30
2018-04-12T17:05:36.407Z,66.60
2018-04-12T17:08:03.870Z,66.50
2018-04-12T17:10:31.380Z,67.00
2018-04-12T17:12:58.942Z,67.20
2018-04-12T17:15:26.383Z,67.20
2018-04-12T17:17:53.845Z,67.80
2018-04-12T17:20:21.371Z,68.00
2018-04-12T17:22:48.983Z,67.70
2018-04-12T17:25:16.439Z,68.40
2018-04-12T17:27:43.888Z,67.90
2018-04-12T17:30:12.241Z,68.40
2018-04-12T17:32:39.705Z,68.40
2018-04-12T17:35:07.895Z,68.90
2018-04-12T17:37:35.360Z,69.10
2018-04-12T17:40:02.877Z,69.50
2018-04-12T17:42:30.499Z,69.70
2018-04-12T17:44:57.960Z,70.60
2018-04-12T17:47:25.415Z,70.50
2018-04-12T17:49:52.863Z,71.20
2018-04-12T17:52:20.305Z,71.50
2018-04-12T17:54:48.521Z,71.70
2018-04-12T17:57:15.997Z,71.70
2018-04-12T17:59:43.445Z,71.40
2018-04-12T18:02:10.907Z,71.90
2018-04-12T18:04:39.132Z,72.10
2018-04-12T18:07:06.607Z,72.10
2018-04-12T18:09:34.154Z,73.10
2018-04-12T18:12:02.400Z,72.90
2018-04-12T18:14:29.856Z,72.90
2018-04-12T18:16:57.300Z,73.40
2018-04-12T18:19:25.524Z,73.70
2018-04-12T18:21:52.986Z,73.70
2018-04-12T18:24:20.525Z,74.60
2018-04-12T18:26:47.976Z,74.00
2018-04-12T18:29:15.425Z,74.60
2018-04-12T18:31:43.647Z,75.30
2018-04-12T18:34:11.090Z,75.20
2018-04-12T18:36:38.527Z,75.90
2018-04-12T18:39:06.764Z,75.40
2018-04-12T18:41:34.232Z,75.40
2018-04-12T18:44:01.683Z,75.90
2018-04-12T18:46:29.127Z,76.00
2018-04-12T18:48:56.604Z,76.00
2018-04-12T18:51:24.032Z,76.60
2018-04-12T18:53:51.492Z,76.60
2018-04-12T18:56:18.978Z,76.60
2018-04-12T18:58:46.443Z,76.70
2018-04-12T19:01:13.998Z,76.70
2018-04-12T19:03:41.515Z,77.60
2018-04-12T19:06:09.020Z,78.20
2018-04-12T19:08:36.523Z,77.80
2018-04-12T19:11:04.116Z,78.10
2018-04-12T19:13:32.604Z,78.20
2018-04-12T19:16:00.846Z,78.00
2018-04-12T19:18:28.364Z,77.80
2018-04-12T19:20:55.828Z,77.80
2018-04-12T19:23:23.376Z,78.00
2018-04-12T19:25:51.699Z,77.30
2018-04-12T19:28:19.305Z,77.30
2018-04-12T19:30:46.755Z,76.60
2018-04-12T19:33:14.238Z,77.70
2018-04-12T19:35:41.710Z,77.30
2018-04-12T19:38:09.934Z,77.80
2018-04-12T19:40:37.387Z,77.70
2018-04-12T19:43:04.846Z,78.40
2018-04-12T19:45:32.385Z,77.40
2018-04-12T19:48:00.708Z,77.20
2018-04-12T19:50:29.110Z,77.20
2018-04-12T19:52:56.738Z,77.60
2018-04-12T19:55:24.175Z,77.90
2018-04-12T19:57:51.647Z,78.00
2018-04-12T20:00:19.885Z,77.90
2018-04-12T20:02:47.335Z,77.90
2018-04-12T20:05:14.829Z,77.90
2018-04-12T20:07:42.281Z,78.00
2018-04-12T20:10:09.720Z,78.00
2018-04-12T20:12:37.184Z,78.30
2018-04-12T20:15:05.419Z,78.70
2018-04-12T20:17:33.642Z,79.10
2018-04-12T20:20:01.081Z,79.10
2018-04-12T20:22:28.550Z,79.00
2018-04-12T20:24:55.994Z,79.40
2018-04-12T20:27:23.432Z,79.90
2018-04-12T20:29:51.652Z,80.10
2018-04-12T20:32:19.974Z,80.30
2018-04-12T20:34:47.443Z,80.30
2018-04-12T20:37:14.883Z,79.80
2018-04-12T20:39:42.344Z,80.00
2018-04-12T20:42:09.801Z,80.70
2018-04-12T20:44:37.292Z,81.50
2018-04-12T20:47:04.741Z,81.00
2018-04-12T20:49:32.218Z,81.00
2018-04-12T20:51:59.668Z,81.20
2018-04-12T20:54:27.189Z,81.10
2018-04-12T20:56:54.862Z,81.00
2018-04-12T20:59:22.296Z,81.80
2018-04-12T21:01:50.514Z,82.40
2018-04-12T21:04:17.987Z,82.40
2018-04-12T21:06:45.465Z,82.70
2018-04-12T21:09:12.922Z,82.30
2018-04-12T21:11:40.379Z,82.40
2018-04-12T21:14:07.841Z,82.40
2018-04-12T21:16:35.407Z,82.00
2018-04-12T21:19:02.864Z,81.60
2018-04-12T21:21:30.307Z,82.80
2018-04-12T21:23:57.764Z,83.10
2018-04-12T21:26:25.246Z,82.60
2018-04-12T21:28:52.688Z,82.70
2018-04-12T21:31:20.132Z,83.60
2018-04-12T21:33:49.106Z,83.60
2018-04-12T21:36:16.579Z,84.10
2018-04-12T21:38:44.355Z,83.70
2018-04-12T21:41:12.578Z,86.00
2018-04-12T21:43:40.044Z,86.00
2018-04-12T21:46:07.484Z,86.20
2018-04-12T21:48:34.941Z,86.00
2018-04-12T21:51:03.167Z,86.50
2018-04-12T21:53:30.607Z,86.40
2018-04-12T21:55:58.067Z,86.90
2018-04-12T21:58:25.517Z,86.00
2018-04-12T22:00:53.022Z,85.90
2018-04-12T22:03:20.482Z,86.80
2018-04-12T22:05:47.925Z,87.20
2018-04-12T22:08:15.361Z,87.10
2018-04-12T22:10:42.807Z,86.70
2018-04-12T22:13:10.262Z,87.00
2018-04-12T22:15:38.486Z,86.90
2018-04-12T22:18:05.926Z,86.80
2018-04-12T22:20:33.417Z,86.80
2018-04-12T22:23:00.835Z,87.60
2018-04-12T22:25:28.289Z,88.00
2018-04-12T22:27:56.501Z,86.70
2018-04-12T22:30:23.956Z,86.50
2018-04-12T22:32:51.422Z,87.20
2018-04-12T22:35:18.888Z,88.00
2018-04-12T22:37:46.320Z,88.50
2018-04-12T22:40:13.800Z,88.60
2018-04-12T22:42:41.229Z,89.60
2018-04-12T22:45:09.456Z,90.00
2018-04-12T22:47:36.911Z,90.00
2018-04-12T22:50:04.357Z,90.20
2018-04-12T22:52:31.815Z,90.20
2018-04-12T22:55:00.020Z,89.60
2018-04-12T22:57:27.469Z,89.60
2018-04-12T22:59:54.931Z,89.40
2018-04-12T23:02:22.376Z,90.10
2018-04-12T23:04:50.681Z,90.00
2018-04-12T23:07:18.155Z,90.00
2018-04-12T23:09:45.628Z,90.10
2018-04-12T23:12:13.053Z,90.30
2018-04-12T23:14:40.535Z,90.20
2018-04-12T23:17:08.004Z,90.30
2018-04-12T23:19:35.466Z,90.40
2018-04-12T23:22:02.943Z,90.30
2018-04-12T23:24:30.419Z,90.50
2018-04-12T23:26:57.893Z,90.70
2018-04-12T23:29:25.357Z,90.40
2018-04-12T23:31:52.797Z,90.30
2018-04-12T23:34:20.260Z,90.30
2018-04-12T23:36:47.816Z,90.30
2018-04-12T23:39:15.256Z,90.40
2018-04-12T23:41:42.716Z,90.60
2018-04-12T23:44:10.176Z,90.70
2018-04-12T23:46:37.645Z,90.60
2018-04-12T23:49:05.087Z,90.70
2018-04-12T23:51:33.311Z,90.50
2018-04-12T23:54:00.748Z,90.20
2018-04-12T23:56:28.963Z,90.10
2018-04-12T23:58:56.428Z,90.10
